METAR Data
IDs: Format: Raw Decoded Include TAF

Data at: 1330 UTC 07 Jul 2020

KCUB 071315Z AUTO 07003KT 10SM BKN010 OVC110 24/23 A3004 RMK AO2 CIG 007V014 T02390228
KCUB 071305Z AUTO 00000KT 10SM BKN008 BKN095 OVC110 24/23 A3003 RMK AO2 CIG 007V012 T02390233
KCUB 071253Z AUTO 07003KT 10SM FEW008 BKN095 OVC110 24/23 A3003 RMK AO2 SLP167 T02390228
KCUB 071204Z AUTO 00000KT 10SM FEW006 FEW020 OVC085 23/23 A3003 RMK AO2 T02330228
KCUB 071153Z AUTO 00000KT 10SM FEW020 SCT080 BKN090 23/23 A3003 RMK AO2 SLP166 60025 70049 T02330228 10233 20228 53003
KCUB 071137Z AUTO 00000KT 10SM SCT024 SCT075 BKN090 23/23 A3002 RMK AO2 T02330228
KCUB 071120Z AUTO 00000KT 10SM FEW021 BKN029 BKN075 23/23 A3002 RMK AO2 T02330228
KCUB 071053Z AUTO 00000KT 9SM BKN039 OVC047 23/23 A3003 RMK AO2 RAE28 SLP165 P0005 T02330228
KCUB 071010Z AUTO 00000KT 4SM RA BR FEW046 BKN055 OVC100 23/23 A3002 RMK AO2 P0004 T02280228
KCUB 070953Z AUTO 00000KT 2 1/2SM +RA BR FEW018 BKN050 OVC070 23/23 A3002 RMK AO2 SLP162 P0015 T02330228
KCUB 070946Z AUTO 00000KT 3SM RA BR FEW019 BKN055 OVC070 23/23 A3002 RMK AO2 P0012 T02280228
KCUB 070938Z AUTO 00000KT 2 1/2SM RA BR SCT019 BKN033 OVC075 23/23 A3002 RMK AO2 P0010 T02280228
KCUB 070931Z AUTO 00000KT 2SM RA BR BKN019 BKN033 OVC049 23/23 A3002 RMK AO2 P0008 T02330228
KCUB 070903Z AUTO 00000KT 4SM -RA BR FEW005 BKN019 OVC090 23/23 A3002 RMK AO2 P0001 T02330228
KCUB 070853Z AUTO 00000KT 5SM -RA BR BKN090 OVC110 23/23 A3002 RMK AO2 RAB36 SLP162 P0003 60005 T02330228 56012
KCUB 070753Z AUTO 00000KT 7SM FEW075 OVC100 23/23 A3002 RMK AO2 RAB02E46 SLP163 P0002 T02330228
KCUB 070653Z AUTO 00000KT 8SM FEW043 SCT055 OVC100 23/23 A3003 RMK AO2 SLP167 T02330228
KCUB 070553Z AUTO 00000KT 9SM FEW044 BKN100 23/23 A3005 RMK AO2 SLP173 60007 T02330228 10244 20233 50001
KCUB 070453Z AUTO 00000KT 9SM CLR 23/22 A3006 RMK AO2 SLP177 T02330222 403060233
KCUB 070353Z AUTO 06003KT 8SM FEW015 24/23 A3005 RMK AO2 SLP173 T02390228
KCUB 070253Z AUTO 00000KT 9SM FEW020 SCT032 BKN080 24/23 A3005 RMK AO2 RAB36E53 SLP171 P0005 60007 T02390233 55005
KCUB 070245Z AUTO 00000KT 3SM -RA BR FEW019 SCT027 BKN046 24/23 A3005 RMK AO2 RAB36 P0005 T02390233
KCUB 070239Z AUTO 00000KT 2 1/2SM RA BR SCT019 BKN025 BKN100 24/23 A3006 RMK AO2 VIS 1V5 LTG DSNT SE RAB36 P0004 T02390233
KCUB 070153Z AUTO 00000KT 10SM CLR 24/23 A3005 RMK AO2 RAE00 SLP171 P0000 T02390228
KCUB 070053Z AUTO 00000KT 10SM -RA SCT110 24/23 A3005 RMK AO2 SLP172 P0002 T02390228
KCUB 062353Z AUTO 00000KT 10SM -RA FEW120 24/22 A3006 RMK AO2 RAB43 SLP178 P0000 60001 T02440222 10306 20244 51008
KCUB 062253Z AUTO 17004KT 10SM FEW035 25/22 A3005 RMK AO2 LTG DSNT SE RAE01 SLP175 P0000 T02500222
KCUB 062153Z AUTO VRB03KT 8SM -RA FEW055 SCT065 BKN080 26/22 A3005 RMK AO2 RAE02B45 SLP173 P0000 T02560217
KCUB 062101Z AUTO 00000KT 10SM -RA FEW070 BKN095 BKN110 26/22 A3003 RMK AO2 LTG DSNT SW AND NW P0000 T02560217
KCUB 062053Z AUTO 16008G17KT 120V190 10SM VCTS -RA FEW080 SCT100 BKN120 26/22 A3004 RMK AO2 LTG DSNT S RAB47 SLP169 P0001 60001 T02610217 55002
KCUB 062046Z AUTO 17011G17KT 10SM VCTS FEW095 SCT120 27/22 A3004 RMK AO2 LTG DSNT S T02670217
KCUB 061953Z AUTO VRB05KT 10SM FEW032 28/23 A3002 RMK AO2 LTG DSNT S AND W SLP163 T02830228
KCUB 061853Z AUTO VRB05KT 10SM FEW120 29/22 A3003 RMK AO2 LTG DSNT SW AND W SLP166 T02940222
KCUB 061753Z AUTO 08005KT 10SM CLR 28/24 A3004 RMK AO2 RAE10 SLP170 P0008 60016 T02830239 10294 20256 58010
KCUB 061714Z AUTO 00000KT 10SM FEW028 SCT042 27/24 A3005 RMK AO2 RAE10 P0008 T02720244
KCUB 061707Z AUTO 00000KT 2 1/2SM -RA FEW019 SCT031 BKN042 27/24 A3005 RMK AO2 P0008 T02670239
KCUB 061656Z AUTO VRB04KT 1SM +RA FEW019 BKN042 OVC060 27/24 A3007 RMK AO2 VIS 1/2V5 P0005 T02670239
KCUB 061653Z AUTO VRB03KT 1 1/4SM +RA FEW019 BKN027 OVC060 27/24 A3007 RMK AO2 RAB49 SLP179 P0008 T02670239
KCUB 061651Z AUTO VRB03KT 1 3/4SM +RA FEW019 BKN027 OVC060 27/24 A3007 RMK AO2 RAB49 P0006
KCUB 061650Z AUTO VRB04KT 2SM -RA FEW019 BKN027 OVC060 27/23 A3007 RMK AO2 RAB49 P0005
KCUB 061624Z AUTO VRB04KT 10SM FEW027 SCT034 BKN085 29/22 A3007 RMK AO2 LTG DSNT NE-SE T02940222
KCUB 061553Z AUTO 20006KT 10SM VCTS FEW026 BKN045 BKN090 29/22 A3007 RMK AO2 LTG DSNT E AND SE SLP181 T02890222
KCUB 061453Z AUTO 26003KT 10SM SCT024 BKN038 OVC050 27/22 A3008 RMK AO2 SLP182 T02720222 51012
KCUB 061353Z AUTO 19005KT 10SM FEW018 28/22 A3006 RMK AO2 SLP177 T02780217
KCUB 061253Z AUTO 00000KT 10SM CLR 26/23 A3006 RMK AO2 SLP175 T02610228
KCUB 061214Z AUTO 00000KT 10SM SCT017 25/22 A3004 RMK AO2 T02500222
KCUB 061153Z AUTO 00000KT 10SM OVC018 24/22 A3004 RMK AO2 SLP170 T02440222 10244 20233 53014
KCUB 061121Z AUTO 00000KT 10SM BKN017 24/22 A3004 RMK AO2 T02440222
KCUB 061053Z AUTO 00000KT 10SM FEW085 SCT120 24/22 A3002 RMK AO2 SLP163 T02390217
KCUB 060953Z AUTO 00000KT 10SM FEW017 SCT033 BKN080 23/22 A3002 RMK AO2 SLP161 T02330217
KCUB 060853Z AUTO 00000KT 10SM FEW031 23/22 A3000 RMK AO2 SLP156 T02330217 55005
KCUB 060753Z AUTO 00000KT 10SM CLR 24/22 A2999 RMK AO2 SLP152 T02390217
KCUB 060653Z AUTO 00000KT 10SM FEW026 24/22 A3001 RMK AO2 SLP159 T02390217
KCUB 060553Z AUTO 00000KT 10SM CLR 24/22 A3002 RMK AO2 SLP161 T02440217 10306 20244 50004
KCUB 060453Z AUTO 00000KT 10SM CLR 25/22 A3003 RMK AO2 SLP166 T02500217 403330222
KCUB 060353Z AUTO 00000KT 10SM CLR 26/21 A3002 RMK AO2 SLP162 T02560211
KCUB 060253Z AUTO 00000KT 10SM CLR 27/21 A3000 RMK AO2 SLP157 T02670206 52016
KCUB 060153Z AUTO VRB03KT 10SM CLR 28/21 A2999 RMK AO2 SLP151 T02780206